F/V Atalante — FVRQ — position and weather

sailwx.info

Track history (hours):
 
Tides and Currents Weather Stations Pressure Air Temp Water Temp Dewpoint Dewpoint Depression Visibility Wind Speed Wind Dir Waves Ship Positions

F/V Atalante

Last reported at 2016-Jun-26 23:33 UTC. Time now 2016-Jun-27 00:36 UTC.
Position N 47°19' W 002°40'.

Length 21 m; draft 3.9 m.

Type: . MMSI: 228854000.

Date/timePositionNaut miles runAvg speedWind from/ knotsBaromVisibWave heightAir tempDewpointWater temp
2016-Jun-26 23:33N 47°19' W 002°40'10 9.8
2016-Jun-26 22:33N 47°17' W 002°54'9 9.4
2016-Jun-26 21:33N 47°16' W 003°08'1010.0
2016-Jun-26 20:33N 47°15' W 003°23'64 9.9
2016-Jun-26 14:05N 47°09' W 004°56'58 1.4
2016-Jun-24 21:33N 47°14' W 003°31'10 9.9
2016-Jun-24 20:34N 47°15' W 003°17'10 9.9
2016-Jun-24 19:34N 47°15' W 003°02'10 9.8
2016-Jun-24 18:33N 47°18' W 002°48'9 9.3
2016-Jun-24 17:33N 47°20' W 002°35'3 0.2
2016-Jun-23 21:33N 47°21' W 002°31'0 0.0
2016-Jun-23 20:33N 47°21' W 002°31'0 0.0
2016-Jun-23 19:32N 47°21' W 002°31'0 0.0
2016-Jun-23 18:30N 47°21' W 002°31'0 0.0
2016-Jun-23 17:32N 47°21' W 002°31'0 0.0
2016-Jun-23 16:34N 47°21' W 002°31'4 4.0
2016-Jun-23 15:33N 47°19' W 002°36'1110.6
2016-Jun-23 14:33N 47°17' W 002°52'1010.1
2016-Jun-23 13:33N 47°16' W 003°07'10 9.7
2016-Jun-23 12:34N 47°15' W 003°21'9 9.4
2016-Jun-23 11:33N 47°15' W 003°35'73 4.7
2016-Jun-22 20:04N 47°25' W 005°22'4 2.4
2016-Jun-22 18:13N 47°29' W 005°23'2 2.3
2016-Jun-22 17:20N 47°28' W 005°21'2 2.5
2016-Jun-22 16:27N 47°26' W 005°20'6 1.9
2016-Jun-22 13:29N 47°28' W 005°13'6 1.2
2016-Jun-22 08:33N 47°33' W 005°16'39 2.0
2016-Jun-21 12:33N 47°46' W 004°21'  
Track history (hours):
 
Tides and Currents Weather Stations Pressure Air Temp Water Temp Dewpoint Dewpoint Depression Visibility Wind Speed Wind Dir Waves Ship Positions

F/V Atalante

Last reported at 2016-Jun-26 23:33 UTC. Time now 2016-Jun-27 00:36 UTC.
Position N 47°19' W 002°40'.

Length 21 m; draft 3.9 m.

Type: . MMSI: 228854000.

Date/timePositionNaut miles runAvg speedWind from/ knotsBaromVisibWave heightAir tempDewpointWater temp
2016-Jun-26 23:33N 47°19' W 002°40'10 9.8
2016-Jun-26 22:33N 47°17' W 002°54'9 9.4
2016-Jun-26 21:33N 47°16' W 003°08'1010.0
2016-Jun-26 20:33N 47°15' W 003°23'64 9.9
2016-Jun-26 14:05N 47°09' W 004°56'58 1.4
2016-Jun-24 21:33N 47°14' W 003°31'10 9.9
2016-Jun-24 20:34N 47°15' W 003°17'10 9.9
2016-Jun-24 19:34N 47°15' W 003°02'10 9.8
2016-Jun-24 18:33N 47°18' W 002°48'9 9.3
2016-Jun-24 17:33N 47°20' W 002°35'3 0.2
2016-Jun-23 21:33N 47°21' W 002°31'0 0.0
2016-Jun-23 20:33N 47°21' W 002°31'0 0.0
2016-Jun-23 19:32N 47°21' W 002°31'0 0.0
2016-Jun-23 18:30N 47°21' W 002°31'0 0.0
2016-Jun-23 17:32N 47°21' W 002°31'0 0.0
2016-Jun-23 16:34N 47°21' W 002°31'4 4.0
2016-Jun-23 15:33N 47°19' W 002°36'1110.6
2016-Jun-23 14:33N 47°17' W 002°52'1010.1
2016-Jun-23 13:33N 47°16' W 003°07'10 9.7
2016-Jun-23 12:34N 47°15' W 003°21'9 9.4
2016-Jun-23 11:33N 47°15' W 003°35'73 4.7
2016-Jun-22 20:04N 47°25' W 005°22'4 2.4
2016-Jun-22 18:13N 47°29' W 005°23'2 2.3
2016-Jun-22 17:20N 47°28' W 005°21'2 2.5
2016-Jun-22 16:27N 47°26' W 005°20'6 1.9
2016-Jun-22 13:29N 47°28' W 005°13'6 1.2
2016-Jun-22 08:33N 47°33' W 005°16'39 2.0
2016-Jun-21 12:33N 47°46' W 004°21'  

Dump ship's entire track history